sensor_id;sensor_type;location;lat;lon;timestamp;P1;durP1;ratioP1;P2;durP2;ratioP2
10269;SDS011;70826;50.930;5.334;2024-02-16T00:01:03;36.38;;;34.28;;
10269;SDS011;70826;50.930;5.334;2024-02-16T00:03:29;37.15;;;35.05;;
10269;SDS011;70826;50.930;5.334;2024-02-16T00:05:55;36.97;;;34.88;;
10269;SDS011;70826;50.930;5.334;2024-02-16T00:08:23;32.45;;;30.63;;
10269;SDS011;70826;50.930;5.334;2024-02-16T00:10:51;38.10;;;35.97;;
10269;SDS011;70826;50.930;5.334;2024-02-16T00:13:21;38.22;;;35.97;;
10269;SDS011;70826;50.930;5.334;2024-02-16T00:15:49;35.97;;;33.88;;
10269;SDS011;70826;50.930;5.334;2024-02-16T00:18:17;36.58;;;34.50;;
10269;SDS011;70826;50.930;5.334;2024-02-16T00:20:42;34.25;;;32.30;;
10269;SDS011;70826;50.930;5.334;2024-02-16T00:23:11;38.55;;;36.35;;
10269;SDS011;70826;50.930;5.334;2024-02-16T00:25:41;34.67;;;32.70;;
10269;SDS011;70826;50.930;5.334;2024-02-16T00:28:07;33.72;;;31.83;;
10269;SDS011;70826;50.930;5.334;2024-02-16T00:30:36;34.40;;;32.50;;
10269;SDS011;70826;50.930;5.334;2024-02-16T00:33:04;34.83;;;32.83;;
10269;SDS011;70826;50.930;5.334;2024-02-16T00:35:29;34.30;;;32.30;;
10269;SDS011;70826;50.930;5.334;2024-02-16T00:38:00;35.45;;;33.45;;
10269;SDS011;70826;50.930;5.334;2024-02-16T00:40:26;32.15;;;30.35;;
10269;SDS011;70826;50.930;5.334;2024-02-16T00:42:56;34.65;;;32.72;;
10269;SDS011;70826;50.930;5.334;2024-02-16T00:45:24;34.00;;;32.08;;
10269;SDS011;70826;50.930;5.334;2024-02-16T00:47:54;32.97;;;31.08;;
10269;SDS011;70826;50.930;5.334;2024-02-16T00:50:22;33.40;;;31.52;;
10269;SDS011;70826;50.930;5.334;2024-02-16T00:52:48;34.38;;;32.45;;
10269;SDS011;70826;50.930;5.334;2024-02-16T00:55:14;31.73;;;29.95;;
10269;SDS011;70826;50.930;5.334;2024-02-16T00:57:42;33.40;;;31.55;;
10269;SDS011;70826;50.930;5.334;2024-02-16T01:00:13;33.97;;;32.05;;
10269;SDS011;70826;50.930;5.334;2024-02-16T01:02:40;31.83;;;30.08;;
10269;SDS011;70826;50.930;5.334;2024-02-16T01:05:08;35.80;;;33.72;;
10269;SDS011;70826;50.930;5.334;2024-02-16T01:07:42;33.03;;;31.13;;
10269;SDS011;70826;50.930;5.334;2024-02-16T01:10:10;34.10;;;32.20;;
10269;SDS011;70826;50.930;5.334;2024-02-16T01:12:38;33.80;;;31.90;;
10269;SDS011;70826;50.930;5.334;2024-02-16T01:15:09;32.95;;;31.08;;
10269;SDS011;70826;50.930;5.334;2024-02-16T01:17:37;35.25;;;33.25;;
10269;SDS011;70826;50.930;5.334;2024-02-16T01:20:06;33.90;;;31.85;;
10269;SDS011;70826;50.930;5.334;2024-02-16T01:22:40;35.72;;;33.72;;
10269;SDS011;70826;50.930;5.334;2024-02-16T01:25:08;33.90;;;32.00;;
10269;SDS011;70826;50.930;5.334;2024-02-16T01:27:38;33.25;;;31.35;;
10269;SDS011;70826;50.930;5.334;2024-02-16T01:30:08;33.17;;;31.30;;
10269;SDS011;70826;50.930;5.334;2024-02-16T01:32:36;32.90;;;31.10;;
10269;SDS011;70826;50.930;5.334;2024-02-16T01:35:05;31.85;;;30.05;;
10269;SDS011;70826;50.930;5.334;2024-02-16T01:37:34;32.28;;;30.48;;
10269;SDS011;70826;50.930;5.334;2024-02-16T01:40:02;33.30;;;31.38;;
10269;SDS011;70826;50.930;5.334;2024-02-16T01:42:36;32.10;;;30.30;;
10269;SDS011;70826;50.930;5.334;2024-02-16T01:45:01;35.13;;;33.13;;
10269;SDS011;70826;50.930;5.334;2024-02-16T01:47:29;34.28;;;32.28;;
10269;SDS011;70826;50.930;5.334;2024-02-16T01:49:57;33.80;;;31.70;;
10269;SDS011;70826;50.930;5.334;2024-02-16T01:52:28;34.78;;;32.67;;
10269;SDS011;70826;50.930;5.334;2024-02-16T01:54:56;33.33;;;31.52;;
10269;SDS011;70826;50.930;5.334;2024-02-16T01:57:23;33.03;;;31.13;;
10269;SDS011;70826;50.930;5.334;2024-02-16T01:59:51;32.45;;;30.65;;
10269;SDS011;70826;50.930;5.334;2024-02-16T02:02:19;33.30;;;31.40;;
10269;SDS011;70826;50.930;5.334;2024-02-16T02:04:49;32.22;;;30.42;;
10269;SDS011;70826;50.930;5.334;2024-02-16T02:07:15;32.63;;;30.83;;
10269;SDS011;70826;50.930;5.334;2024-02-16T02:09:41;33.20;;;31.30;;
10269;SDS011;70826;50.930;5.334;2024-02-16T02:12:12;32.30;;;30.48;;
10269;SDS011;70826;50.930;5.334;2024-02-16T02:14:37;33.88;;;31.88;;
10269;SDS011;70826;50.930;5.334;2024-02-16T02:17:05;30.67;;;29.08;;
10269;SDS011;70826;50.930;5.334;2024-02-16T02:19:31;33.38;;;31.48;;
10269;SDS011;70826;50.930;5.334;2024-02-16T02:21:57;34.53;;;32.60;;
10269;SDS011;70826;50.930;5.334;2024-02-16T02:24:25;32.58;;;30.67;;
10269;SDS011;70826;50.930;5.334;2024-02-16T02:26:53;32.53;;;30.73;;
10269;SDS011;70826;50.930;5.334;2024-02-16T02:29:19;33.25;;;31.38;;
10269;SDS011;70826;50.930;5.334;2024-02-16T02:31:45;32.15;;;30.25;;
10269;SDS011;70826;50.930;5.334;2024-02-16T02:34:11;31.13;;;29.27;;
10269;SDS011;70826;50.930;5.334;2024-02-16T02:36:42;33.72;;;31.65;;
10269;SDS011;70826;50.930;5.334;2024-02-16T02:39:10;32.40;;;30.60;;
10269;SDS011;70826;50.930;5.334;2024-02-16T02:41:38;32.78;;;30.92;;
10269;SDS011;70826;50.930;5.334;2024-02-16T02:44:04;33.28;;;31.33;;
10269;SDS011;70826;50.930;5.334;2024-02-16T02:46:32;34.20;;;32.17;;
10269;SDS011;70826;50.930;5.334;2024-02-16T02:49:00;32.50;;;30.67;;
10269;SDS011;70826;50.930;5.334;2024-02-16T02:51:27;33.47;;;31.60;;
10269;SDS011;70826;50.930;5.334;2024-02-16T02:53:54;32.90;;;30.92;;
10269;SDS011;70826;50.930;5.334;2024-02-16T02:56:24;33.08;;;31.17;;
10269;SDS011;70826;50.930;5.334;2024-02-16T02:58:52;36.30;;;34.10;;
10269;SDS011;70826;50.930;5.334;2024-02-16T03:01:20;33.42;;;31.52;;
10269;SDS011;70826;50.930;5.334;2024-02-16T03:03:48;34.97;;;33.08;;
10269;SDS011;70826;50.930;5.334;2024-02-16T03:06:19;34.30;;;32.38;;
10269;SDS011;70826;50.930;5.334;2024-02-16T03:08:48;34.20;;;32.30;;
10269;SDS011;70826;50.930;5.334;2024-02-16T03:11:16;33.90;;;31.90;;
10269;SDS011;70826;50.930;5.334;2024-02-16T03:13:42;32.45;;;30.65;;
10269;SDS011;70826;50.930;5.334;2024-02-16T03:16:12;32.90;;;31.10;;
10269;SDS011;70826;50.930;5.334;2024-02-16T03:18:39;32.50;;;30.70;;
10269;SDS011;70826;50.930;5.334;2024-02-16T03:21:04;32.83;;;30.92;;
10269;SDS011;70826;50.930;5.334;2024-02-16T03:23:32;31.88;;;30.00;;
10269;SDS011;70826;50.930;5.334;2024-02-16T03:25:58;33.63;;;31.55;;
10269;SDS011;70826;50.930;5.334;2024-02-16T03:28:24;34.75;;;32.65;;
10269;SDS011;70826;50.930;5.334;2024-02-16T03:30:49;32.47;;;30.67;;
10269;SDS011;70826;50.930;5.334;2024-02-16T03:33:17;32.20;;;30.40;;
10269;SDS011;70826;50.930;5.334;2024-02-16T03:35:47;31.83;;;30.02;;
10269;SDS011;70826;50.930;5.334;2024-02-16T03:38:13;32.40;;;30.52;;
10269;SDS011;70826;50.930;5.334;2024-02-16T03:40:39;32.42;;;30.63;;
10269;SDS011;70826;50.930;5.334;2024-02-16T03:43:04;32.92;;;30.92;;
10269;SDS011;70826;50.930;5.334;2024-02-16T03:45:30;33.95;;;32.05;;
10269;SDS011;70826;50.930;5.334;2024-02-16T03:47:56;32.45;;;30.60;;
10269;SDS011;70826;50.930;5.334;2024-02-16T03:50:26;33.88;;;31.98;;
10269;SDS011;70826;50.930;5.334;2024-02-16T03:52:52;32.50;;;30.70;;
10269;SDS011;70826;50.930;5.334;2024-02-16T03:55:20;31.10;;;29.35;;
10269;SDS011;70826;50.930;5.334;2024-02-16T03:57:45;32.72;;;30.75;;
10269;SDS011;70826;50.930;5.334;2024-02-16T04:00:19;33.53;;;31.52;;
10269;SDS011;70826;50.930;5.334;2024-02-16T04:02:49;31.52;;;29.73;;
10269;SDS011;70826;50.930;5.334;2024-02-16T04:05:14;32.00;;;30.20;;
10269;SDS011;70826;50.930;5.334;2024-02-16T04:07:40;31.92;;;30.23;;
10269;SDS011;70826;50.930;5.334;2024-02-16T04:10:08;32.20;;;30.38;;
10269;SDS011;70826;50.930;5.334;2024-02-16T04:12:34;31.80;;;30.00;;
10269;SDS011;70826;50.930;5.334;2024-02-16T04:14:59;31.58;;;29.83;;
10269;SDS011;70826;50.930;5.334;2024-02-16T04:17:29;33.38;;;31.48;;
10269;SDS011;70826;50.930;5.334;2024-02-16T04:19:57;33.70;;;31.90;;
10269;SDS011;70826;50.930;5.334;2024-02-16T04:22:25;31.77;;;30.00;;
10269;SDS011;70826;50.930;5.334;2024-02-16T04:24:53;34.63;;;32.72;;
10269;SDS011;70826;50.930;5.334;2024-02-16T04:27:21;35.75;;;33.72;;
10269;SDS011;70826;50.930;5.334;2024-02-16T04:29:48;33.38;;;31.50;;
10269;SDS011;70826;50.930;5.334;2024-02-16T04:32:16;36.30;;;34.25;;
10269;SDS011;70826;50.930;5.334;2024-02-16T04:34:42;35.72;;;33.63;;
10269;SDS011;70826;50.930;5.334;2024-02-16T04:37:08;35.33;;;33.22;;
10269;SDS011;70826;50.930;5.334;2024-02-16T04:39:33;35.95;;;33.95;;
10269;SDS011;70826;50.930;5.334;2024-02-16T04:41:59;34.15;;;32.35;;
10269;SDS011;70826;50.930;5.334;2024-02-16T04:44:25;35.13;;;33.22;;
10269;SDS011;70826;50.930;5.334;2024-02-16T04:46:50;35.80;;;33.70;;
10269;SDS011;70826;50.930;5.334;2024-02-16T04:49:17;37.85;;;35.75;;
10269;SDS011;70826;50.930;5.334;2024-02-16T04:51:48;36.47;;;34.47;;
10269;SDS011;70826;50.930;5.334;2024-02-16T04:54:16;36.53;;;34.38;;
10269;SDS011;70826;50.930;5.334;2024-02-16T04:56:44;35.67;;;33.58;;
10269;SDS011;70826;50.930;5.334;2024-02-16T04:59:15;38.28;;;35.97;;
10269;SDS011;70826;50.930;5.334;2024-02-16T05:01:46;36.42;;;34.42;;
10269;SDS011;70826;50.930;5.334;2024-02-16T05:04:14;36.65;;;34.55;;
10269;SDS011;70826;50.930;5.334;2024-02-16T05:06:45;35.30;;;33.28;;
10269;SDS011;70826;50.930;5.334;2024-02-16T05:09:13;35.65;;;33.65;;
10269;SDS011;70826;50.930;5.334;2024-02-16T05:11:42;37.40;;;35.30;;
10269;SDS011;70826;50.930;5.334;2024-02-16T05:14:10;35.78;;;33.58;;
10269;SDS011;70826;50.930;5.334;2024-02-16T05:16:45;35.25;;;33.35;;
10269;SDS011;70826;50.930;5.334;2024-02-16T05:19:13;36.13;;;34.15;;
10269;SDS011;70826;50.930;5.334;2024-02-16T05:21:41;34.72;;;32.72;;
10269;SDS011;70826;50.930;5.334;2024-02-16T05:24:09;35.53;;;33.47;;
10269;SDS011;70826;50.930;5.334;2024-02-16T05:26:36;35.47;;;33.40;;
10269;SDS011;70826;50.930;5.334;2024-02-16T05:29:01;33.03;;;31.25;;
10269;SDS011;70826;50.930;5.334;2024-02-16T05:31:27;36.45;;;34.45;;
10269;SDS011;70826;50.930;5.334;2024-02-16T05:33:53;36.25;;;34.15;;
10269;SDS011;70826;50.930;5.334;2024-02-16T05:38:50;33.40;;;31.60;;
10269;SDS011;70826;50.930;5.334;2024-02-16T05:41:20;33.10;;;31.30;;
10269;SDS011;70826;50.930;5.334;2024-02-16T05:43:45;35.25;;;33.28;;
10269;SDS011;70826;50.930;5.334;2024-02-16T05:46:14;33.40;;;31.60;;
10269;SDS011;70826;50.930;5.334;2024-02-16T05:48:43;34.05;;;32.20;;
10269;SDS011;70826;50.930;5.334;2024-02-16T05:51:12;36.78;;;34.70;;
10269;SDS011;70826;50.930;5.334;2024-02-16T05:53:40;34.55;;;32.67;;
10269;SDS011;70826;50.930;5.334;2024-02-16T05:56:06;32.03;;;30.33;;
10269;SDS011;70826;50.930;5.334;2024-02-16T05:58:35;32.00;;;30.30;;
10269;SDS011;70826;50.930;5.334;2024-02-16T06:01:02;31.13;;;29.42;;
10269;SDS011;70826;50.930;5.334;2024-02-16T06:03:28;32.30;;;30.60;;
10269;SDS011;70826;50.930;5.334;2024-02-16T06:05:57;32.45;;;30.65;;
10269;SDS011;70826;50.930;5.334;2024-02-16T06:08:27;31.10;;;29.40;;
10269;SDS011;70826;50.930;5.334;2024-02-16T06:10:52;31.77;;;30.02;;
10269;SDS011;70826;50.930;5.334;2024-02-16T06:13:20;31.75;;;30.00;;
10269;SDS011;70826;50.930;5.334;2024-02-16T06:15:48;32.03;;;30.33;;
10269;SDS011;70826;50.930;5.334;2024-02-16T06:18:14;32.85;;;31.10;;
10269;SDS011;70826;50.930;5.334;2024-02-16T06:20:40;31.70;;;29.92;;
10269;SDS011;70826;50.930;5.334;2024-02-16T06:23:06;31.33;;;29.65;;
10269;SDS011;70826;50.930;5.334;2024-02-16T06:25:33;30.42;;;28.75;;
10269;SDS011;70826;50.930;5.334;2024-02-16T06:28:02;27.75;;;26.25;;
10269;SDS011;70826;50.930;5.334;2024-02-16T06:30:30;30.45;;;28.70;;
10269;SDS011;70826;50.930;5.334;2024-02-16T06:32:56;30.25;;;28.58;;
10269;SDS011;70826;50.930;5.334;2024-02-16T06:35:23;29.10;;;27.50;;
10269;SDS011;70826;50.930;5.334;2024-02-16T06:37:49;28.48;;;26.95;;
10269;SDS011;70826;50.930;5.334;2024-02-16T06:40:15;30.42;;;28.73;;
10269;SDS011;70826;50.930;5.334;2024-02-16T06:42:41;30.25;;;28.35;;
10269;SDS011;70826;50.930;5.334;2024-02-16T06:45:09;28.67;;;27.17;;
10269;SDS011;70826;50.930;5.334;2024-02-16T06:47:37;27.05;;;25.50;;
10269;SDS011;70826;50.930;5.334;2024-02-16T06:50:03;29.85;;;28.20;;
10269;SDS011;70826;50.930;5.334;2024-02-16T06:52:32;27.00;;;25.52;;
10269;SDS011;70826;50.930;5.334;2024-02-16T06:55:00;30.17;;;28.52;;
10269;SDS011;70826;50.930;5.334;2024-02-16T06:57:25;30.02;;;28.40;;
10269;SDS011;70826;50.930;5.334;2024-02-16T06:59:51;27.52;;;26.02;;
10269;SDS011;70826;50.930;5.334;2024-02-16T07:02:18;27.60;;;25.95;;
10269;SDS011;70826;50.930;5.334;2024-02-16T07:04:44;25.85;;;24.45;;
10269;SDS011;70826;50.930;5.334;2024-02-16T07:07:12;29.13;;;27.42;;
10269;SDS011;70826;50.930;5.334;2024-02-16T07:09:38;28.52;;;26.95;;
10269;SDS011;70826;50.930;5.334;2024-02-16T07:12:04;27.83;;;26.23;;
10269;SDS011;70826;50.930;5.334;2024-02-16T07:14:31;26.85;;;25.38;;
10269;SDS011;70826;50.930;5.334;2024-02-16T07:17:02;25.75;;;24.35;;
10269;SDS011;70826;50.930;5.334;2024-02-16T07:19:28;25.52;;;24.10;;
10269;SDS011;70826;50.930;5.334;2024-02-16T07:21:53;27.60;;;26.08;;
10269;SDS011;70826;50.930;5.334;2024-02-16T07:24:19;24.30;;;22.98;;
10269;SDS011;70826;50.930;5.334;2024-02-16T07:26:47;26.83;;;25.23;;
10269;SDS011;70826;50.930;5.334;2024-02-16T07:29:13;23.88;;;22.58;;
10269;SDS011;70826;50.930;5.334;2024-02-16T07:31:41;25.23;;;23.63;;
10269;SDS011;70826;50.930;5.334;2024-02-16T07:34:07;24.70;;;23.33;;
10269;SDS011;70826;50.930;5.334;2024-02-16T07:36:33;22.05;;;20.75;;
10269;SDS011;70826;50.930;5.334;2024-02-16T07:39:01;23.65;;;22.42;;
10269;SDS011;70826;50.930;5.334;2024-02-16T07:41:29;24.98;;;23.58;;
10269;SDS011;70826;50.930;5.334;2024-02-16T07:43:55;25.85;;;24.35;;
10269;SDS011;70826;50.930;5.334;2024-02-16T07:46:21;25.20;;;23.70;;
10269;SDS011;70826;50.930;5.334;2024-02-16T07:48:49;24.58;;;23.20;;
10269;SDS011;70826;50.930;5.334;2024-02-16T07:51:17;25.35;;;23.95;;
10269;SDS011;70826;50.930;5.334;2024-02-16T07:53:43;24.52;;;23.13;;
10269;SDS011;70826;50.930;5.334;2024-02-16T07:56:11;23.58;;;22.17;;
10269;SDS011;70826;50.930;5.334;2024-02-16T07:58:37;24.40;;;23.02;;
10269;SDS011;70826;50.930;5.334;2024-02-16T08:01:08;22.98;;;21.63;;
10269;SDS011;70826;50.930;5.334;2024-02-16T08:03:35;21.92;;;20.55;;
10269;SDS011;70826;50.930;5.334;2024-02-16T08:06:01;21.10;;;19.90;;
10269;SDS011;70826;50.930;5.334;2024-02-16T08:08:29;22.13;;;20.83;;
10269;SDS011;70826;50.930;5.334;2024-02-16T08:10:57;22.38;;;21.10;;
10269;SDS011;70826;50.930;5.334;2024-02-16T08:13:23;21.35;;;19.95;;
10269;SDS011;70826;50.930;5.334;2024-02-16T08:15:48;20.17;;;18.88;;
10269;SDS011;70826;50.930;5.334;2024-02-16T08:18:16;20.88;;;19.67;;
10269;SDS011;70826;50.930;5.334;2024-02-16T08:20:42;20.90;;;19.65;;
10269;SDS011;70826;50.930;5.334;2024-02-16T08:23:10;21.20;;;19.83;;
10269;SDS011;70826;50.930;5.334;2024-02-16T08:25:38;20.88;;;19.60;;
10269;SDS011;70826;50.930;5.334;2024-02-16T08:28:09;20.05;;;18.75;;
10269;SDS011;70826;50.930;5.334;2024-02-16T08:30:37;20.52;;;19.25;;
10269;SDS011;70826;50.930;5.334;2024-02-16T08:33:06;19.33;;;18.23;;
10269;SDS011;70826;50.930;5.334;2024-02-16T08:35:34;19.33;;;18.23;;
10269;SDS011;70826;50.930;5.334;2024-02-16T08:38:00;19.23;;;18.08;;
10269;SDS011;70826;50.930;5.334;2024-02-16T08:40:25;19.50;;;18.40;;
10269;SDS011;70826;50.930;5.334;2024-02-16T08:42:55;17.95;;;16.88;;
10269;SDS011;70826;50.930;5.334;2024-02-16T08:45:26;17.05;;;15.95;;
10269;SDS011;70826;50.930;5.334;2024-02-16T08:47:51;17.13;;;16.13;;
10269;SDS011;70826;50.930;5.334;2024-02-16T08:50:17;16.15;;;15.07;;
10269;SDS011;70826;50.930;5.334;2024-02-16T08:52:43;16.83;;;15.75;;
10269;SDS011;70826;50.930;5.334;2024-02-16T08:55:09;15.95;;;14.95;;
10269;SDS011;70826;50.930;5.334;2024-02-16T08:57:38;15.90;;;15.00;;
10269;SDS011;70826;50.930;5.334;2024-02-16T09:00:08;16.23;;;15.20;;
10269;SDS011;70826;50.930;5.334;2024-02-16T09:02:41;15.43;;;14.52;;
10269;SDS011;70826;50.930;5.334;2024-02-16T09:05:07;15.38;;;14.43;;
10269;SDS011;70826;50.930;5.334;2024-02-16T09:07:35;15.93;;;14.82;;
10269;SDS011;70826;50.930;5.334;2024-02-16T09:10:01;13.90;;;13.07;;
10269;SDS011;70826;50.930;5.334;2024-02-16T09:12:29;14.70;;;13.70;;
10269;SDS011;70826;50.930;5.334;2024-02-16T09:14:55;18.48;;;17.17;;
10269;SDS011;70826;50.930;5.334;2024-02-16T09:17:20;18.67;;;17.25;;
10269;SDS011;70826;50.930;5.334;2024-02-16T09:19:46;19.33;;;18.10;;
10269;SDS011;70826;50.930;5.334;2024-02-16T09:22:16;18.13;;;16.83;;
10269;SDS011;70826;50.930;5.334;2024-02-16T09:24:44;21.92;;;20.63;;
10269;SDS011;70826;50.930;5.334;2024-02-16T09:27:12;18.83;;;17.38;;
10269;SDS011;70826;50.930;5.334;2024-02-16T09:29:38;25.35;;;23.10;;
10269;SDS011;70826;50.930;5.334;2024-02-16T09:32:04;19.55;;;18.23;;
10269;SDS011;70826;50.930;5.334;2024-02-16T09:34:33;24.27;;;22.77;;
10269;SDS011;70826;50.930;5.334;2024-02-16T09:36:59;25.17;;;23.17;;
10269;SDS011;70826;50.930;5.334;2024-02-16T09:39:28;26.63;;;24.80;;
10269;SDS011;70826;50.930;5.334;2024-02-16T09:41:59;26.70;;;24.92;;
10269;SDS011;70826;50.930;5.334;2024-02-16T09:44:25;28.92;;;27.05;;
10269;SDS011;70826;50.930;5.334;2024-02-16T09:46:53;28.33;;;26.30;;
10269;SDS011;70826;50.930;5.334;2024-02-16T09:49:19;26.95;;;25.25;;
10269;SDS011;70826;50.930;5.334;2024-02-16T09:51:45;28.00;;;26.30;;
10269;SDS011;70826;50.930;5.334;2024-02-16T09:54:13;29.55;;;27.85;;
10269;SDS011;70826;50.930;5.334;2024-02-16T09:56:39;25.80;;;24.25;;
10269;SDS011;70826;50.930;5.334;2024-02-16T09:59:07;25.65;;;23.92;;
10269;SDS011;70826;50.930;5.334;2024-02-16T10:01:36;25.77;;;24.08;;
10269;SDS011;70826;50.930;5.334;2024-02-16T10:04:07;22.75;;;21.23;;
10269;SDS011;70826;50.930;5.334;2024-02-16T10:06:47;23.55;;;22.15;;
10269;SDS011;70826;50.930;5.334;2024-02-16T10:09:21;24.60;;;22.80;;
10269;SDS011;70826;50.930;5.334;2024-02-16T10:11:50;20.77;;;19.48;;
10269;SDS011;70826;50.930;5.334;2024-02-16T10:14:20;20.67;;;19.27;;
10269;SDS011;70826;50.930;5.334;2024-02-16T10:16:47;19.85;;;18.60;;
10269;SDS011;70826;50.930;5.334;2024-02-16T10:19:13;20.30;;;18.92;;
10269;SDS011;70826;50.930;5.334;2024-02-16T10:21:42;19.65;;;18.40;;
10269;SDS011;70826;50.930;5.334;2024-02-16T10:24:11;19.48;;;18.30;;
10269;SDS011;70826;50.930;5.334;2024-02-16T10:26:40;18.55;;;17.25;;
10269;SDS011;70826;50.930;5.334;2024-02-16T10:29:08;19.58;;;18.33;;
10269;SDS011;70826;50.930;5.334;2024-02-16T10:31:36;19.83;;;18.60;;
10269;SDS011;70826;50.930;5.334;2024-02-16T10:34:03;18.13;;;16.80;;
10269;SDS011;70826;50.930;5.334;2024-02-16T10:36:37;19.77;;;18.48;;
10269;SDS011;70826;50.930;5.334;2024-02-16T10:39:04;21.00;;;19.05;;
10269;SDS011;70826;50.930;5.334;2024-02-16T10:41:33;59.83;;;37.03;;
10269;SDS011;70826;50.930;5.334;2024-02-16T10:44:00;44.70;;;27.77;;
10269;SDS011;70826;50.930;5.334;2024-02-16T10:46:30;26.75;;;20.58;;
10269;SDS011;70826;50.930;5.334;2024-02-16T10:48:57;28.67;;;20.80;;
10269;SDS011;70826;50.930;5.334;2024-02-16T10:51:24;24.60;;;21.88;;
10269;SDS011;70826;50.930;5.334;2024-02-16T10:53:59;23.52;;;21.13;;
10269;SDS011;70826;50.930;5.334;2024-02-16T10:56:36;22.77;;;19.52;;
10269;SDS011;70826;50.930;5.334;2024-02-16T10:59:03;26.50;;;22.30;;
10269;SDS011;70826;50.930;5.334;2024-02-16T11:01:48;26.85;;;24.38;;
10269;SDS011;70826;50.930;5.334;2024-02-16T11:04:23;23.63;;;20.95;;
10269;SDS011;70826;50.930;5.334;2024-02-16T11:06:52;27.30;;;24.70;;
10269;SDS011;70826;50.930;5.334;2024-02-16T11:09:30;27.98;;;25.50;;
10269;SDS011;70826;50.930;5.334;2024-02-16T11:12:04;25.88;;;23.48;;
10269;SDS011;70826;50.930;5.334;2024-02-16T11:14:39;23.27;;;21.05;;
10269;SDS011;70826;50.930;5.334;2024-02-16T11:17:10;23.08;;;20.98;;
10269;SDS011;70826;50.930;5.334;2024-02-16T11:19:42;21.77;;;19.95;;
10269;SDS011;70826;50.930;5.334;2024-02-16T11:22:14;22.65;;;20.60;;
10269;SDS011;70826;50.930;5.334;2024-02-16T11:24:44;20.92;;;19.17;;
10269;SDS011;70826;50.930;5.334;2024-02-16T11:27:10;23.48;;;21.45;;
10269;SDS011;70826;50.930;5.334;2024-02-16T11:29:37;22.92;;;20.83;;
10269;SDS011;70826;50.930;5.334;2024-02-16T11:32:08;20.27;;;18.33;;
10269;SDS011;70826;50.930;5.334;2024-02-16T11:34:41;19.48;;;17.77;;
10269;SDS011;70826;50.930;5.334;2024-02-16T11:37:06;18.65;;;17.08;;
10269;SDS011;70826;50.930;5.334;2024-02-16T11:39:32;16.73;;;15.43;;
10269;SDS011;70826;50.930;5.334;2024-02-16T11:44:31;14.85;;;13.35;;
10269;SDS011;70826;50.930;5.334;2024-02-16T11:46:58;17.42;;;15.68;;
10269;SDS011;70826;50.930;5.334;2024-02-16T11:49:24;20.45;;;18.58;;
10269;SDS011;70826;50.930;5.334;2024-02-16T11:51:52;22.05;;;20.33;;
10269;SDS011;70826;50.930;5.334;2024-02-16T11:54:20;23.98;;;22.15;;
10269;SDS011;70826;50.930;5.334;2024-02-16T11:56:49;25.52;;;23.63;;
10269;SDS011;70826;50.930;5.334;2024-02-16T11:59:18;27.85;;;25.33;;
10269;SDS011;70826;50.930;5.334;2024-02-16T12:01:54;26.08;;;24.17;;
10269;SDS011;70826;50.930;5.334;2024-02-16T12:06:47;26.50;;;24.63;;
10269;SDS011;70826;50.930;5.334;2024-02-16T12:09:16;26.67;;;24.58;;
10269;SDS011;70826;50.930;5.334;2024-02-16T12:11:42;28.67;;;26.67;;
10269;SDS011;70826;50.930;5.334;2024-02-16T12:14:07;29.27;;;27.17;;
10269;SDS011;70826;50.930;5.334;2024-02-16T12:16:33;28.92;;;26.83;;
10269;SDS011;70826;50.930;5.334;2024-02-16T12:19:05;29.85;;;27.77;;
10269;SDS011;70826;50.930;5.334;2024-02-16T12:21:31;30.98;;;28.55;;
10269;SDS011;70826;50.930;5.334;2024-02-16T12:23:56;29.55;;;27.55;;
10269;SDS011;70826;50.930;5.334;2024-02-16T12:26:22;32.55;;;30.58;;
10269;SDS011;70826;50.930;5.334;2024-02-16T12:28:48;33.80;;;31.42;;
10269;SDS011;70826;50.930;5.334;2024-02-16T12:31:20;31.73;;;29.80;;
10269;SDS011;70826;50.930;5.334;2024-02-16T12:33:48;31.10;;;29.10;;
10269;SDS011;70826;50.930;5.334;2024-02-16T12:36:14;34.13;;;31.88;;
10269;SDS011;70826;50.930;5.334;2024-02-16T12:38:41;36.05;;;33.17;;
10269;SDS011;70826;50.930;5.334;2024-02-16T12:41:07;34.28;;;32.08;;
10269;SDS011;70826;50.930;5.334;2024-02-16T12:43:33;34.50;;;32.17;;
10269;SDS011;70826;50.930;5.334;2024-02-16T12:45:59;36.33;;;34.08;;
10269;SDS011;70826;50.930;5.334;2024-02-16T12:48:27;34.75;;;32.58;;
10269;SDS011;70826;50.930;5.334;2024-02-16T12:50:53;27.42;;;25.40;;
10269;SDS011;70826;50.930;5.334;2024-02-16T12:53:23;26.40;;;24.73;;
10269;SDS011;70826;50.930;5.334;2024-02-16T12:55:50;23.08;;;21.65;;
10269;SDS011;70826;50.930;5.334;2024-02-16T12:58:16;22.05;;;20.52;;
10269;SDS011;70826;50.930;5.334;2024-02-16T13:00:42;31.95;;;29.85;;
10269;SDS011;70826;50.930;5.334;2024-02-16T13:03:07;27.50;;;25.75;;
10269;SDS011;70826;50.930;5.334;2024-02-16T13:05:33;26.25;;;24.52;;
10269;SDS011;70826;50.930;5.334;2024-02-16T13:07:59;26.80;;;24.88;;
10269;SDS011;70826;50.930;5.334;2024-02-16T13:10:25;29.20;;;27.35;;
10269;SDS011;70826;50.930;5.334;2024-02-16T13:12:50;28.35;;;26.40;;
10269;SDS011;70826;50.930;5.334;2024-02-16T13:15:16;25.98;;;24.17;;
10269;SDS011;70826;50.930;5.334;2024-02-16T13:17:42;22.50;;;21.00;;
10269;SDS011;70826;50.930;5.334;2024-02-16T13:20:08;21.08;;;19.73;;
10269;SDS011;70826;50.930;5.334;2024-02-16T13:22:36;22.75;;;21.23;;
10269;SDS011;70826;50.930;5.334;2024-02-16T13:25:05;24.17;;;22.30;;
10269;SDS011;70826;50.930;5.334;2024-02-16T13:27:33;24.15;;;22.48;;
10269;SDS011;70826;50.930;5.334;2024-02-16T13:30:02;25.05;;;23.45;;
10269;SDS011;70826;50.930;5.334;2024-02-16T13:32:27;23.95;;;22.40;;
10269;SDS011;70826;50.930;5.334;2024-02-16T13:34:53;25.92;;;24.30;;
10269;SDS011;70826;50.930;5.334;2024-02-16T13:37:21;27.10;;;25.40;;
10269;SDS011;70826;50.930;5.334;2024-02-16T13:39:47;28.42;;;26.55;;
10269;SDS011;70826;50.930;5.334;2024-02-16T13:42:13;30.95;;;28.92;;
10269;SDS011;70826;50.930;5.334;2024-02-16T13:44:39;30.23;;;28.20;;
10269;SDS011;70826;50.930;5.334;2024-02-16T13:47:04;32.58;;;30.50;;
10269;SDS011;70826;50.930;5.334;2024-02-16T13:49:30;32.13;;;30.05;;
10269;SDS011;70826;50.930;5.334;2024-02-16T13:51:56;31.65;;;29.55;;
10269;SDS011;70826;50.930;5.334;2024-02-16T13:54:24;31.40;;;29.50;;
10269;SDS011;70826;50.930;5.334;2024-02-16T13:56:50;30.02;;;28.15;;
10269;SDS011;70826;50.930;5.334;2024-02-16T13:59:16;27.05;;;25.42;;
10269;SDS011;70826;50.930;5.334;2024-02-16T14:01:44;25.25;;;23.60;;
10269;SDS011;70826;50.930;5.334;2024-02-16T14:04:11;24.95;;;23.20;;
10269;SDS011;70826;50.930;5.334;2024-02-16T14:06:38;25.98;;;24.25;;
10269;SDS011;70826;50.930;5.334;2024-02-16T14:09:04;24.77;;;23.08;;
10269;SDS011;70826;50.930;5.334;2024-02-16T14:11:36;27.20;;;25.20;;
10269;SDS011;70826;50.930;5.334;2024-02-16T14:14:02;24.65;;;23.20;;
10269;SDS011;70826;50.930;5.334;2024-02-16T14:16:30;24.27;;;22.77;;
10269;SDS011;70826;50.930;5.334;2024-02-16T14:18:56;25.27;;;23.83;;
10269;SDS011;70826;50.930;5.334;2024-02-16T14:21:22;27.77;;;25.92;;
10269;SDS011;70826;50.930;5.334;2024-02-16T14:23:48;25.67;;;24.13;;
10269;SDS011;70826;50.930;5.334;2024-02-16T14:26:13;24.98;;;23.30;;
10269;SDS011;70826;50.930;5.334;2024-02-16T14:28:39;24.63;;;23.05;;
10269;SDS011;70826;50.930;5.334;2024-02-16T14:31:04;24.55;;;23.10;;